Time;durP1;ratioP1;P1;durP2;ratioP2;P2;SDS_P1;SDS_P2;PMS_P1;PMS_P2;Temp;Humidity;BMP_temperature;BMP_pressure;BME280_temperature;BME280_humidity;BME280_pressure;Samples;Min_cycle;Max_cycle;Signal;HPM_P1;HPM_P2
2021/09/19 00:00:30;;;;;;;4.43;1.90;;;19.30;99.90;;;;;;5045865;28;20440;-25
2021/09/19 00:03:01;;;;;;;3.33;2.30;;;19.30;99.90;;;;;;5043390;28;20433;-25
2021/09/19 00:05:35;;;;;;;3.10;2.00;;;19.40;99.90;;;;;;5045083;28;20468;-25
2021/09/19 00:08:07;;;;;;;4.80;2.70;;;19.60;99.90;;;;;;5045315;28;20432;-25
2021/09/19 00:10:38;;;;;;;3.63;2.30;;;19.60;99.90;;;;;;5045804;28;20513;-25
2021/09/19 00:13:09;;;;;;;4.83;2.30;;;19.40;99.90;;;;;;5043426;28;20440;-25
2021/09/19 00:15:40;;;;;;;3.23;2.00;;;19.50;99.90;;;;;;5044189;28;20453;-25
2021/09/19 00:18:11;;;;;;;2.80;2.20;;;19.30;99.90;;;;;;5044828;28;20438;-25
2021/09/19 00:20:43;;;;;;;3.77;1.80;;;19.10;99.90;;;;;;5044913;28;20902;-25
2021/09/19 00:23:15;;;;;;;2.17;1.60;;;18.90;99.90;;;;;;5041222;28;20424;-24
2021/09/19 00:25:46;;;;;;;3.10;1.83;;;18.60;99.90;;;;;;5044696;28;20481;-24
2021/09/19 00:28:17;;;;;;;3.17;1.57;;;18.50;99.90;;;;;;5044867;28;20455;-25
2021/09/19 00:30:48;;;;;;;3.20;1.30;;;18.30;99.90;;;;;;5044373;28;20435;-25
2021/09/19 00:33:19;;;;;;;2.37;1.37;;;18.10;99.90;;;;;;5044162;28;20441;-24
2021/09/19 00:35:51;;;;;;;2.50;1.47;;;18.00;99.90;;;;;;5043590;28;20473;-25
2021/09/19 00:38:22;;;;;;;1.60;1.50;;;17.80;99.90;;;;;;5041781;28;20482;-25
2021/09/19 00:40:53;;;;;;;3.00;2.17;;;17.90;99.90;;;;;;5044095;28;20435;-25
2021/09/19 00:43:24;;;;;;;3.53;1.77;;;17.80;99.90;;;;;;5044156;28;20449;-26
2021/09/19 00:45:55;;;;;;;5.03;2.10;;;17.80;99.90;;;;;;5042679;28;20472;-26
2021/09/19 00:48:26;;;;;;;2.10;1.90;;;17.70;99.90;;;;;;5044295;28;20449;-26
2021/09/19 00:50:59;;;;;;;2.27;1.83;;;17.70;99.90;;;;;;5039130;28;20485;-26
2021/09/19 00:53:31;;;;;;;1.70;1.40;;;17.70;99.90;;;;;;5044707;28;20792;-26
2021/09/19 00:56:06;;;;;;;2.00;1.67;;;17.60;99.90;;;;;;5044273;28;20504;-25
2021/09/19 00:58:42;;;;;;;2.90;1.97;;;17.60;99.90;;;;;;5044084;28;20480;-25
2021/09/19 01:01:13;;;;;;;2.13;1.80;;;17.60;99.90;;;;;;5028488;28;20511;-25
2021/09/19 01:03:45;;;;;;;3.23;1.63;;;17.40;99.90;;;;;;5044684;28;20461;-25
2021/09/19 01:06:18;;;;;;;3.07;1.27;;;17.40;99.90;;;;;;5044076;28;20509;-25
2021/09/19 01:08:50;;;;;;;2.97;2.07;;;17.50;99.90;;;;;;5028211;28;20428;-25
2021/09/19 01:11:21;;;;;;;2.07;1.67;;;17.40;99.90;;;;;;5043423;28;20454;-25
2021/09/19 01:13:52;;;;;;;5.40;2.07;;;17.40;99.90;;;;;;5043837;28;20477;-25
2021/09/19 01:16:23;;;;;;;1.40;1.30;;;17.40;99.90;;;;;;5042663;28;20449;-26
2021/09/19 01:18:55;;;;;;;2.27;1.43;;;17.30;99.90;;;;;;5043984;28;20454;-25
2021/09/19 01:21:28;;;;;;;1.77;1.10;;;17.20;99.90;;;;;;5043666;28;20457;-25
2021/09/19 01:24:03;;;;;;;2.50;1.50;;;17.10;99.90;;;;;;5043545;28;20453;-25
2021/09/19 01:26:34;;;;;;;2.87;1.40;;;17.10;99.90;;;;;;5042830;28;20457;-25
2021/09/19 01:29:06;;;;;;;3.23;1.33;;;17.10;99.90;;;;;;5042998;28;20566;-25
2021/09/19 01:31:38;;;;;;;2.30;1.30;;;17.00;99.90;;;;;;5040292;28;20464;-25
2021/09/19 01:34:09;;;;;;;1.70;1.60;;;16.90;99.90;;;;;;5043010;28;20420;-25
2021/09/19 01:36:40;;;;;;;3.03;1.50;;;17.00;99.90;;;;;;5043042;28;20432;-25
2021/09/19 01:39:13;;;;;;;3.20;1.43;;;17.00;99.90;;;;;;5043172;28;20528;-26
2021/09/19 01:41:44;;;;;;;2.80;2.20;;;16.90;99.90;;;;;;5043059;28;20481;-25
2021/09/19 01:44:15;;;;;;;2.40;1.70;;;16.80;99.90;;;;;;5043778;28;20944;-25
2021/09/19 01:46:46;;;;;;;3.07;2.03;;;16.90;99.90;;;;;;5026482;28;20449;-26
2021/09/19 01:49:17;;;;;;;4.40;1.87;;;16.90;99.90;;;;;;5042982;28;20449;-25
2021/09/19 01:51:48;;;;;;;3.90;1.90;;;16.90;99.90;;;;;;5042849;28;20454;-25
2021/09/19 01:54:20;;;;;;;2.00;1.70;;;16.90;99.90;;;;;;5043779;28;20488;-25
2021/09/19 01:56:51;;;;;;;3.23;2.53;;;16.80;99.90;;;;;;5035173;28;20470;-25
2021/09/19 01:59:22;;;;;;;3.70;3.40;;;16.90;99.90;;;;;;5042206;28;20481;-25
2021/09/19 02:01:54;;;;;;;3.70;3.03;;;16.90;99.90;;;;;;5042641;28;20882;-25
2021/09/19 02:04:26;;;;;;;4.47;3.10;;;16.80;99.90;;;;;;5042428;28;20455;-25
2021/09/19 02:06:57;;;;;;;4.40;3.20;;;16.70;99.90;;;;;;5027608;28;20494;-25
2021/09/19 02:09:30;;;;;;;3.00;2.70;;;16.70;99.90;;;;;;5042625;28;20465;-25
2021/09/19 02:12:01;;;;;;;3.40;2.87;;;16.50;99.90;;;;;;5042043;28;20476;-24
2021/09/19 02:14:32;;;;;;;5.43;3.03;;;16.40;99.90;;;;;;5043179;28;20428;-24
2021/09/19 02:17:03;;;;;;;2.67;2.40;;;16.30;99.90;;;;;;5042409;28;20870;-24
2021/09/19 02:19:34;;;;;;;3.20;2.57;;;16.20;99.90;;;;;;5042719;28;20472;-24
2021/09/19 02:22:07;;;;;;;4.93;2.70;;;16.10;99.90;;;;;;5042010;28;20546;-24
2021/09/19 02:24:40;;;;;;;4.10;3.27;;;16.00;99.90;;;;;;5043291;28;20448;-24
2021/09/19 02:27:12;;;;;;;3.77;3.07;;;15.90;99.90;;;;;;5042377;28;20473;-24
2021/09/19 02:29:42;;;;;;;3.40;2.50;;;15.80;99.90;;;;;;5042331;28;20464;-24
2021/09/19 02:32:13;;;;;;;3.67;2.13;;;15.80;99.90;;;;;;5042342;28;20453;-24
2021/09/19 02:34:44;;;;;;;3.20;2.37;;;15.80;99.90;;;;;;5039033;28;20481;-24
2021/09/19 02:37:15;;;;;;;2.47;2.27;;;15.70;99.90;;;;;;5042896;28;20485;-24
2021/09/19 02:39:48;;;;;;;5.97;2.57;;;15.60;99.90;;;;;;5043144;28;20460;-25
2021/09/19 02:42:19;;;;;;;3.90;2.30;;;15.60;99.90;;;;;;5041702;28;21003;-24
2021/09/19 02:44:50;;;;;;;4.03;2.50;;;15.60;99.90;;;;;;5042838;28;20822;-25
2021/09/19 02:47:21;;;;;;;4.57;2.80;;;15.60;99.90;;;;;;5042478;28;20505;-25
2021/09/19 02:49:52;;;;;;;2.47;2.20;;;15.50;99.90;;;;;;5042828;28;20453;-24
2021/09/19 02:52:23;;;;;;;2.50;2.30;;;15.50;99.90;;;;;;5042479;28;20457;-25
2021/09/19 02:54:55;;;;;;;3.70;2.87;;;15.40;99.90;;;;;;5042858;28;20453;-24
2021/09/19 02:57:26;;;;;;;3.57;2.90;;;15.30;99.90;;;;;;5042859;28;20446;-24
2021/09/19 02:59:57;;;;;;;4.13;2.10;;;15.20;99.90;;;;;;5042289;28;20476;-24
2021/09/19 03:02:28;;;;;;;3.60;3.30;;;15.20;99.90;;;;;;5042040;28;20508;-24
2021/09/19 03:05:00;;;;;;;6.50;2.33;;;15.20;99.90;;;;;;5042426;28;20477;-24
2021/09/19 03:07:31;;;;;;;3.07;2.47;;;15.10;99.90;;;;;;5037774;28;20458;-24
2021/09/19 03:10:05;;;;;;;2.30;2.10;;;15.10;99.90;;;;;;5042217;28;21108;-24
2021/09/19 03:12:36;;;;;;;2.30;2.10;;;15.00;99.90;;;;;;5040616;28;21162;-25
2021/09/19 03:15:08;;;;;;;4.07;2.70;;;15.00;99.90;;;;;;5039228;28;20492;-24
2021/09/19 03:17:39;;;;;;;3.40;2.67;;;14.90;99.90;;;;;;5039411;28;20532;-24
2021/09/19 03:20:13;;;;;;;4.20;2.90;;;14.80;99.90;;;;;;5038611;28;20445;-24
2021/09/19 03:22:46;;;;;;;3.37;2.40;;;14.80;99.90;;;;;;5037734;28;20555;-25
2021/09/19 03:25:19;;;;;;;3.00;2.50;;;14.70;99.90;;;;;;5038618;28;20481;-24
2021/09/19 03:27:50;;;;;;;4.63;2.70;;;14.70;99.90;;;;;;5037987;28;20473;-24
2021/09/19 03:30:21;;;;;;;3.53;2.10;;;14.70;99.90;;;;;;5042176;28;20509;-25
2021/09/19 03:32:52;;;;;;;4.00;2.90;;;14.60;99.90;;;;;;5045156;28;20549;-24
2021/09/19 03:35:23;;;;;;;3.03;2.73;;;14.60;99.90;;;;;;5042885;28;20445;-24
2021/09/19 03:37:54;;;;;;;3.37;2.73;;;14.60;99.90;;;;;;5045027;28;20473;-24
2021/09/19 03:40:26;;;;;;;2.80;2.60;;;14.60;99.90;;;;;;5045454;28;20472;-24
2021/09/19 03:42:57;;;;;;;2.43;2.23;;;14.60;99.90;;;;;;5045527;28;20500;-24
2021/09/19 03:45:29;;;;;;;4.17;2.90;;;14.60;99.90;;;;;;5045044;28;20480;-25
2021/09/19 03:48:04;;;;;;;4.63;3.40;;;14.60;99.90;;;;;;5044207;28;20516;-24
2021/09/19 03:50:36;;;;;;;4.67;4.27;;;14.70;99.90;;;;;;5043428;28;20472;-24
2021/09/19 03:53:07;;;;;;;4.73;3.90;;;14.70;99.90;;;;;;5044975;28;20520;-24
2021/09/19 03:55:39;;;;;;;4.10;3.70;;;14.70;99.90;;;;;;5044995;28;20485;-24
2021/09/19 03:58:10;;;;;;;4.67;3.30;;;14.70;99.90;;;;;;5045565;28;20489;-24
2021/09/19 04:00:41;;;;;;;3.70;3.37;;;14.70;99.90;;;;;;5045169;28;20445;-25
2021/09/19 04:03:12;;;;;;;5.47;3.60;;;14.80;99.90;;;;;;5044701;28;20507;-24
2021/09/19 04:06:02;;;;;;;3.53;3.23;;;14.80;99.90;;;;;;5044768;28;20477;-24
2021/09/19 04:08:34;;;;;;;6.67;3.40;;;14.90;99.90;;;;;;5044280;28;20480;-23
2021/09/19 04:11:06;;;;;;;4.37;3.93;;;14.90;99.90;;;;;;5044811;28;20449;-24
2021/09/19 04:13:37;;;;;;;4.90;2.93;;;15.00;99.90;;;;;;5045239;28;21139;-24
2021/09/19 04:16:08;;;;;;;4.20;3.33;;;15.00;99.90;;;;;;5043794;28;20471;-24
2021/09/19 04:18:39;;;;;;;3.10;2.90;;;15.10;99.90;;;;;;5030138;28;20553;-24
2021/09/19 04:21:10;;;;;;;3.33;2.37;;;15.10;99.90;;;;;;5044877;28;20453;-24
2021/09/19 04:23:41;;;;;;;4.40;3.00;;;15.20;99.90;;;;;;5045040;28;20485;-24
2021/09/19 04:26:14;;;;;;;3.20;2.90;;;15.20;99.90;;;;;;5044658;28;20446;-24
2021/09/19 04:28:45;;;;;;;3.20;2.80;;;15.20;99.90;;;;;;5028920;28;20489;-24
2021/09/19 04:31:15;;;;;;;5.07;3.07;;;15.20;99.90;;;;;;5043616;28;20456;-23
2021/09/19 04:33:47;;;;;;;4.37;2.77;;;15.20;99.90;;;;;;5044800;28;20548;-23
2021/09/19 04:36:18;;;;;;;2.80;2.33;;;15.20;99.90;;;;;;5043885;28;20834;-23
2021/09/19 04:38:49;;;;;;;4.77;2.63;;;15.30;99.90;;;;;;5037707;28;20917;-24
2021/09/19 04:41:21;;;;;;;3.50;2.93;;;15.30;99.90;;;;;;5044107;28;20480;-24
2021/09/19 04:43:52;;;;;;;4.80;2.87;;;15.30;99.90;;;;;;5042200;28;20614;-23
2021/09/19 04:46:23;;;;;;;3.50;2.67;;;15.30;99.90;;;;;;5038442;28;20495;-23
2021/09/19 04:48:56;;;;;;;5.90;3.13;;;15.30;99.90;;;;;;5044773;28;20527;-24
2021/09/19 04:51:27;;;;;;;3.13;2.83;;;15.30;99.90;;;;;;5042329;28;20513;-23
2021/09/19 04:53:58;;;;;;;5.37;2.60;;;15.30;99.90;;;;;;5043844;28;20453;-23
2021/09/19 04:56:31;;;;;;;5.67;2.63;;;15.30;99.90;;;;;;5044321;28;20456;-23
2021/09/19 04:59:02;;;;;;;2.50;2.20;;;15.30;99.90;;;;;;5042888;28;20449;-24
2021/09/19 05:01:33;;;;;;;2.60;2.40;;;15.30;99.90;;;;;;5042385;28;21030;-24
2021/09/19 05:04:05;;;;;;;3.90;2.60;;;15.30;99.90;;;;;;5044038;28;20507;-24
2021/09/19 05:06:36;;;;;;;3.50;3.10;;;15.30;99.90;;;;;;5042792;28;20464;-24
2021/09/19 05:09:07;;;;;;;6.50;2.80;;;15.30;99.90;;;;;;5027762;28;20969;-24
2021/09/19 05:11:40;;;;;;;3.10;2.80;;;15.20;99.90;;;;;;5042863;28;20449;-24
2021/09/19 05:14:11;;;;;;;4.43;3.60;;;15.30;99.90;;;;;;5034921;28;20453;-24
2021/09/19 05:16:42;;;;;;;5.80;3.40;;;15.30;99.90;;;;;;5042367;28;20442;-24
2021/09/19 05:19:13;;;;;;;4.60;3.63;;;15.20;99.90;;;;;;5044107;28;20906;-24
2021/09/19 05:21:44;;;;;;;6.60;3.47;;;15.20;99.90;;;;;;5032694;28;20454;-24
2021/09/19 05:24:14;;;;;;;4.43;3.63;;;15.30;99.90;;;;;;5043480;28;20485;-24
2021/09/19 05:26:47;;;;;;;8.37;3.17;;;15.20;99.90;;;;;;5043301;28;20496;-24
2021/09/19 05:29:18;;;;;;;5.03;3.30;;;15.20;99.90;;;;;;5043077;28;20476;-25
2021/09/19 05:31:49;;;;;;;6.60;3.40;;;15.20;99.90;;;;;;5042638;28;20449;-24
2021/09/19 05:34:20;;;;;;;5.67;3.57;;;15.20;99.90;;;;;;5042514;28;20511;-24
2021/09/19 05:36:51;;;;;;;8.00;3.73;;;15.20;99.90;;;;;;5039146;28;20469;-24
2021/09/19 05:39:22;;;;;;;3.50;3.20;;;15.10;99.90;;;;;;5043132;28;20437;-24
2021/09/19 05:41:55;;;;;;;3.83;3.23;;;15.10;99.90;;;;;;5042394;28;20453;-24
2021/09/19 05:44:26;;;;;;;4.70;2.73;;;15.10;99.90;;;;;;5041482;28;20484;-24
2021/09/19 05:46:57;;;;;;;5.67;3.77;;;15.10;99.90;;;;;;5041099;28;20566;-24
2021/09/19 05:49:28;;;;;;;3.60;3.20;;;15.10;99.90;;;;;;5043043;28;20453;-24
2021/09/19 05:51:58;;;;;;;3.60;3.03;;;15.10;99.90;;;;;;5042398;28;20465;-24
2021/09/19 05:54:29;;;;;;;4.90;3.10;;;15.10;99.90;;;;;;5042191;28;20460;-24
2021/09/19 05:57:02;;;;;;;4.00;2.80;;;15.20;99.90;;;;;;5042809;28;20457;-22
2021/09/19 05:59:33;;;;;;;4.97;3.60;;;15.20;99.90;;;;;;5042219;28;20476;-23
2021/09/19 06:02:04;;;;;;;4.30;3.30;;;15.20;99.90;;;;;;5041442;28;20449;-23
2021/09/19 06:04:36;;;;;;;7.57;3.40;;;15.10;99.90;;;;;;5042532;28;20583;-23
2021/09/19 06:07:07;;;;;;;5.50;3.30;;;15.10;99.90;;;;;;5042555;28;20460;-24
2021/09/19 06:09:38;;;;;;;4.60;3.40;;;15.00;99.90;;;;;;5043039;28;20453;-24
2021/09/19 06:12:11;;;;;;;5.90;3.70;;;15.10;99.90;;;;;;5042202;28;20909;-24
2021/09/19 06:14:42;;;;;;;4.60;2.70;;;15.10;99.90;;;;;;5042180;28;20552;-24
2021/09/19 06:17:13;;;;;;;7.00;3.20;;;15.10;99.90;;;;;;5040939;28;21000;-24
2021/09/19 06:19:44;;;;;;;10.77;4.20;;;15.00;99.90;;;;;;5042999;28;20457;-24
2021/09/19 06:22:15;;;;;;;4.50;3.27;;;15.00;99.90;;;;;;5041907;28;20477;-24
2021/09/19 06:24:47;;;;;;;5.70;3.90;;;15.00;99.90;;;;;;5042628;28;20489;-24
2021/09/19 06:27:19;;;;;;;5.50;2.93;;;15.00;99.90;;;;;;5041905;28;20477;-25
2021/09/19 06:29:50;;;;;;;5.70;3.60;;;15.00;99.90;;;;;;5042791;28;20927;-24
2021/09/19 06:32:21;;;;;;;7.13;4.00;;;15.10;99.90;;;;;;5041354;28;22036;-25
2021/09/19 06:34:52;;;;;;;7.67;3.90;;;15.10;99.90;;;;;;5041519;28;20472;-24
2021/09/19 06:37:23;;;;;;;4.50;3.23;;;15.10;99.90;;;;;;5042286;28;20464;-24
2021/09/19 06:39:54;;;;;;;10.33;3.70;;;15.10;99.90;;;;;;5042106;28;20467;-24
2021/09/19 06:42:27;;;;;;;5.53;3.73;;;15.00;99.90;;;;;;5027771;28;20479;-24
2021/09/19 06:44:58;;;;;;;3.43;2.43;;;15.10;99.90;;;;;;5032063;28;20504;-25
2021/09/19 06:47:29;;;;;;;5.10;3.00;;;15.10;99.90;;;;;;5040984;28;20502;-25
2021/09/19 06:50:00;;;;;;;8.90;3.80;;;15.10;99.90;;;;;;5042499;28;20481;-25
2021/09/19 06:52:31;;;;;;;6.37;3.27;;;15.10;99.90;;;;;;5041858;28;20457;-25
2021/09/19 06:55:02;;;;;;;4.77;3.10;;;15.10;99.90;;;;;;5042206;28;20465;-24
2021/09/19 06:57:35;;;;;;;5.20;3.63;;;15.00;99.90;;;;;;5041778;28;20454;-25
2021/09/19 07:00:07;;;;;;;6.80;3.10;;;15.00;99.90;;;;;;5027030;28;20457;-25
2021/09/19 07:02:38;;;;;;;4.90;2.90;;;15.00;99.90;;;;;;5041074;28;20509;-24
2021/09/19 07:05:11;;;;;;;6.40;3.07;;;15.00;99.90;;;;;;5041149;28;20499;-24
2021/09/19 07:07:42;;;;;;;11.60;3.57;;;15.00;99.90;;;;;;5043782;28;20460;-24
2021/09/19 07:10:14;;;;;;;4.60;3.60;;;15.00;99.90;;;;;;5046103;28;20841;-24
2021/09/19 07:12:48;;;;;;;5.10;3.07;;;15.00;99.90;;;;;;5044957;28;20458;-24
2021/09/19 07:15:19;;;;;;;6.17;2.83;;;15.00;99.90;;;;;;5043887;28;20442;-24
2021/09/19 07:17:50;;;;;;;6.33;2.80;;;15.00;99.90;;;;;;5032336;28;20445;-24
2021/09/19 07:20:21;;;;;;;3.70;2.67;;;15.10;99.90;;;;;;5046336;28;20449;-24
2021/09/19 07:22:52;;;;;;;5.33;3.17;;;15.00;99.90;;;;;;5044857;28;20428;-24
2021/09/19 07:25:23;;;;;;;5.40;3.20;;;15.10;99.90;;;;;;5045845;28;20488;-24
2021/09/19 07:27:56;;;;;;;6.70;3.20;;;15.10;99.90;;;;;;5045671;28;20468;-24
2021/09/19 07:30:27;;;;;;;5.47;2.83;;;15.10;99.90;;;;;;5045785;28;20442;-23
2021/09/19 07:32:59;;;;;;;6.10;3.27;;;15.10;99.90;;;;;;5034836;28;20465;-23
2021/09/19 07:35:30;;;;;;;6.33;3.17;;;15.00;99.90;;;;;;5044243;28;20524;-23
2021/09/19 07:38:01;;;;;;;8.03;3.80;;;14.90;99.90;;;;;;5044819;28;20468;-23
2021/09/19 07:40:33;;;;;;;10.73;3.47;;;14.80;99.90;;;;;;5043777;28;20484;-23
2021/09/19 07:43:07;;;;;;;7.90;3.43;;;14.80;99.90;;;;;;5044141;28;20457;-23
2021/09/19 07:45:38;;;;;;;7.33;3.33;;;14.70;99.90;;;;;;5045831;28;20475;-23
2021/09/19 07:48:12;;;;;;;4.90;3.67;;;14.60;99.90;;;;;;5044463;28;20453;-23
2021/09/19 07:50:43;;;;;;;6.10;3.10;;;14.50;99.90;;;;;;5042789;28;20458;-23
2021/09/19 07:53:16;;;;;;;5.90;2.87;;;14.50;99.90;;;;;;5027627;28;20457;-23
2021/09/19 07:55:52;;;;;;;8.47;3.33;;;14.40;99.90;;;;;;5036427;28;20464;-24
2021/09/19 07:58:25;;;;;;;3.53;3.03;;;14.30;99.90;;;;;;5045568;28;20540;-23
2021/09/19 08:00:59;;;;;;;4.80;3.20;;;14.30;99.90;;;;;;5045458;28;20445;-23
2021/09/19 08:03:30;;;;;;;3.37;3.07;;;14.40;99.90;;;;;;5044893;28;20620;-24
2021/09/19 08:06:01;;;;;;;4.63;3.30;;;14.40;99.90;;;;;;5044479;28;20492;-23
2021/09/19 08:08:32;;;;;;;2.80;1.90;;;14.40;99.90;;;;;;5045302;28;20869;-23
2021/09/19 08:11:03;;;;;;;3.43;1.87;;;14.30;99.90;;;;;;5043815;28;20481;-23
2021/09/19 08:13:35;;;;;;;2.77;1.50;;;14.10;99.90;;;;;;5044406;28;20449;-23
2021/09/19 08:16:07;;;;;;;3.07;1.70;;;14.00;99.90;;;;;;5044323;28;20512;-23
2021/09/19 08:18:38;;;;;;;1.10;1.10;;;13.80;99.90;;;;;;5044763;28;20986;-23
2021/09/19 08:21:09;;;;;;;1.50;0.93;;;13.80;99.90;;;;;;5044922;28;20569;-23
2021/09/19 08:23:39;;;;;;;1.17;0.80;;;13.70;99.90;;;;;;5044558;28;20488;-23
2021/09/19 08:26:10;;;;;;;0.97;0.97;;;13.60;99.90;;;;;;5044287;28;20539;-23
2021/09/19 08:28:43;;;;;;;1.63;1.00;;;13.60;99.90;;;;;;5044818;28;20465;-23
2021/09/19 08:31:14;;;;;;;1.50;1.20;;;13.60;99.90;;;;;;5044168;28;20819;-23
2021/09/19 08:33:46;;;;;;;1.07;1.00;;;13.60;99.90;;;;;;5043056;28;20469;-23
2021/09/19 08:36:18;;;;;;;1.20;1.10;;;13.60;99.90;;;;;;5043971;28;20485;-23
2021/09/19 08:38:49;;;;;;;2.20;0.87;;;13.60;99.90;;;;;;5044974;28;20454;-24
2021/09/19 08:41:20;;;;;;;1.00;0.90;;;13.60;99.90;;;;;;5044356;28;20457;-24
2021/09/19 08:43:54;;;;;;;1.10;0.60;;;13.60;99.90;;;;;;5042300;28;20457;-23
2021/09/19 08:46:25;;;;;;;0.80;0.80;;;13.40;99.90;;;;;;5043549;28;20473;-23
2021/09/19 08:48:57;;;;;;;0.70;0.70;;;13.40;99.90;;;;;;5044399;28;20465;-23
2021/09/19 08:51:27;;;;;;;1.07;0.97;;;13.40;99.90;;;;;;5043651;28;20449;-23
2021/09/19 08:53:59;;;;;;;2.30;0.60;;;13.40;99.90;;;;;;5043657;28;20461;-23
2021/09/19 08:56:30;;;;;;;0.53;0.53;;;13.30;99.90;;;;;;5044105;28;20496;-24
2021/09/19 08:59:02;;;;;;;1.67;0.97;;;13.30;99.90;;;;;;5043849;28;20801;-23
2021/09/19 09:01:33;;;;;;;2.07;1.10;;;13.30;99.90;;;;;;5043579;28;20446;-24
2021/09/19 09:04:06;;;;;;;0.97;0.90;;;13.30;99.90;;;;;;5043301;28;20586;-24
2021/09/19 09:06:40;;;;;;;0.70;0.70;;;13.30;99.90;;;;;;5043492;28;20493;-24
2021/09/19 09:09:17;;;;;;;0.80;0.80;;;13.40;99.90;;;;;;5035038;28;20500;-24
2021/09/19 09:12:02;;;;;;;1.13;1.00;;;13.30;99.90;;;;;;5043767;28;20809;-24
2021/09/19 09:14:43;;;;;;;0.73;0.73;;;13.20;99.90;;;;;;5043244;28;20913;-24
2021/09/19 09:17:16;;;;;;;1.33;1.07;;;13.20;99.90;;;;;;5043045;28;20453;-24
2021/09/19 09:19:50;;;;;;;1.20;1.10;;;13.20;99.90;;;;;;5044530;28;20480;-24
2021/09/19 09:22:26;;;;;;;0.90;0.80;;;13.20;99.90;;;;;;5043432;28;20464;-24
2021/09/19 09:25:09;;;;;;;0.90;0.90;;;13.20;99.90;;;;;;5043687;28;20491;-24
2021/09/19 09:27:42;;;;;;;0.60;0.60;;;13.30;99.90;;;;;;5042687;28;20558;-24
2021/09/19 09:30:19;;;;;;;3.00;0.73;;;13.30;99.90;;;;;;5042864;28;20453;-24
2021/09/19 09:32:59;;;;;;;1.20;1.13;;;13.30;99.90;;;;;;5042219;28;20445;-24
2021/09/19 09:35:35;;;;;;;0.83;0.83;;;13.30;99.90;;;;;;5043105;28;20463;-24
2021/09/19 09:38:19;;;;;;;0.87;0.87;;;13.20;99.90;;;;;;5042775;28;20441;-24
2021/09/19 09:40:51;;;;;;;0.70;0.60;;;13.40;99.90;;;;;;5033757;28;20560;-25
2021/09/19 09:43:22;;;;;;;1.10;0.77;;;13.30;99.90;;;;;;5043021;28;20790;-24
2021/09/19 09:45:55;;;;;;;6.50;1.40;;;13.30;99.90;;;;;;5042455;28;20616;-24
2021/09/19 09:48:29;;;;;;;2.70;0.90;;;13.30;99.90;;;;;;5043001;28;20456;-23
2021/09/19 09:51:02;;;;;;;1.30;1.20;;;13.30;99.90;;;;;;5042891;28;20517;-23
2021/09/19 09:53:33;;;;;;;2.00;1.33;;;13.20;99.90;;;;;;5043108;28;20503;-23
2021/09/19 09:56:05;;;;;;;1.30;1.03;;;13.20;99.90;;;;;;5042741;28;20541;-23
2021/09/19 09:58:36;;;;;;;2.10;1.03;;;13.20;99.90;;;;;;5042803;28;20485;-23
2021/09/19 10:01:09;;;;;;;2.07;0.80;;;13.20;99.90;;;;;;5041946;28;20469;-23
2021/09/19 10:03:41;;;;;;;2.40;1.30;;;13.10;99.90;;;;;;5042329;28;20964;-23
2021/09/19 10:06:14;;;;;;;1.30;1.20;;;13.10;99.90;;;;;;5042467;28;20568;-23
2021/09/19 10:08:52;;;;;;;2.93;1.07;;;13.10;99.90;;;;;;5038305;28;20449;-24
2021/09/19 10:11:25;;;;;;;1.43;1.30;;;13.10;99.90;;;;;;5042952;28;20466;-23
2021/09/19 10:13:56;;;;;;;2.37;1.10;;;13.10;99.90;;;;;;5041855;28;21000;-23
2021/09/19 10:16:29;;;;;;;2.37;0.93;;;13.00;99.90;;;;;;5041210;28;20480;-23
2021/09/19 10:19:01;;;;;;;0.90;0.70;;;13.00;99.90;;;;;;5042832;28;20472;-23
2021/09/19 10:21:34;;;;;;;1.30;0.97;;;13.00;99.90;;;;;;5042810;28;20496;-23
2021/09/19 10:24:06;;;;;;;2.27;1.30;;;12.90;99.90;;;;;;5042633;28;20452;-23
2021/09/19 10:26:53;;;;;;;1.93;1.57;;;13.00;99.90;;;;;;5040211;28;20481;-23
2021/09/19 10:29:28;;;;;;;1.70;1.30;;;13.00;99.90;;;;;;5042315;28;20449;-23
2021/09/19 10:32:05;;;;;;;1.57;1.47;;;13.00;99.90;;;;;;5041532;28;20464;-23
2021/09/19 10:34:37;;;;;;;1.67;1.30;;;12.90;99.90;;;;;;5042002;28;20457;-23
2021/09/19 10:37:08;;;;;;;1.37;1.27;;;12.90;99.90;;;;;;5038140;28;20457;-23
2021/09/19 10:39:41;;;;;;;3.60;1.10;;;12.90;99.90;;;;;;5042021;28;20491;-23
2021/09/19 10:42:25;;;;;;;1.63;1.10;;;12.90;99.90;;;;;;5044602;28;20893;-23
2021/09/19 10:45:17;;;;;;;1.13;0.80;;;12.80;99.90;;;;;;5046675;28;20460;-23
2021/09/19 10:47:57;;;;;;;1.23;1.03;;;12.90;99.90;;;;;;5040249;28;20525;-24
2021/09/19 10:50:36;;;;;;;1.87;1.60;;;12.90;99.90;;;;;;5046699;28;20449;-23
2021/09/19 10:53:24;;;;;;;1.77;1.67;;;13.00;99.90;;;;;;5046446;28;20820;-23
2021/09/19 10:55:58;;;;;;;2.40;1.10;;;13.00;99.90;;;;;;5045856;28;20553;-23
2021/09/19 10:58:30;;;;;;;1.90;1.03;;;12.90;99.90;;;;;;5046605;28;20455;-23
2021/09/19 11:01:16;;;;;;;2.37;1.30;;;12.90;99.90;;;;;;5045937;28;20484;-23
2021/09/19 11:04:10;;;;;;;2.30;1.17;;;13.00;99.90;;;;;;5045677;28;20552;-23
2021/09/19 11:06:42;;;;;;;1.37;0.87;;;13.00;99.90;;;;;;5045749;28;20467;-23
2021/09/19 11:09:24;;;;;;;2.07;1.20;;;13.00;99.90;;;;;;5041363;28;20592;-23
2021/09/19 11:12:11;;;;;;;1.27;1.17;;;13.00;99.90;;;;;;5045421;28;20825;-22
2021/09/19 11:14:58;;;;;;;1.40;1.30;;;13.00;99.90;;;;;;5045388;28;20493;-23
2021/09/19 11:17:31;;;;;;;1.23;1.13;;;13.00;99.90;;;;;;5045312;28;20449;-23
2021/09/19 11:20:31;;;;;;;1.40;0.90;;;13.00;99.90;;;;;;5045930;28;20514;-23
2021/09/19 11:23:23;;;;;;;1.60;1.50;;;13.10;99.90;;;;;;5045373;28;20972;-22
2021/09/19 11:25:55;;;;;;;3.40;1.37;;;13.10;99.90;;;;;;5045680;28;20517;-22
2021/09/19 11:28:27;;;;;;;3.97;2.13;;;13.10;99.90;;;;;;5045396;28;20496;-23
2021/09/19 11:30:59;;;;;;;2.30;2.10;;;13.10;99.90;;;;;;5045195;28;20782;-23
2021/09/19 11:33:32;;;;;;;2.80;2.10;;;13.20;99.90;;;;;;5045948;28;20540;-23
2021/09/19 11:36:06;;;;;;;2.30;2.00;;;13.10;99.90;;;;;;5044992;28;20484;-23
2021/09/19 11:38:37;;;;;;;3.43;2.27;;;13.20;99.90;;;;;;5044269;28;20461;-23
2021/09/19 11:41:09;;;;;;;2.40;2.00;;;13.20;99.90;;;;;;5036781;28;20453;-23
2021/09/19 11:43:41;;;;;;;1.50;1.40;;;13.20;99.90;;;;;;5045276;28;20492;-23
2021/09/19 11:46:15;;;;;;;2.63;1.80;;;13.10;99.90;;;;;;5044031;28;20453;-23
2021/09/19 11:48:47;;;;;;;2.63;2.10;;;13.20;99.90;;;;;;5046161;28;20543;-22
2021/09/19 11:51:20;;;;;;;2.77;2.53;;;13.20;99.90;;;;;;5044892;28;20500;-23
2021/09/19 11:53:53;;;;;;;2.53;2.03;;;13.20;99.90;;;;;;5044985;28;20449;-22
2021/09/19 11:56:25;;;;;;;2.70;2.17;;;13.20;99.90;;;;;;5037649;28;20540;-23
2021/09/19 11:58:56;;;;;;;2.77;2.30;;;13.10;99.90;;;;;;5045354;28;20484;-22
2021/09/19 12:01:29;;;;;;;2.57;2.37;;;13.10;99.90;;;;;;5044842;28;20441;-22
2021/09/19 12:04:06;;;;;;;2.93;2.67;;;13.20;99.90;;;;;;5044840;28;20484;-23
2021/09/19 12:06:41;;;;;;;2.80;2.50;;;13.10;99.90;;;;;;5044809;28;20457;-22
2021/09/19 12:09:13;;;;;;;3.00;2.63;;;13.10;99.90;;;;;;5045453;28;20488;-23
2021/09/19 12:11:49;;;;;;;3.00;2.73;;;13.10;99.90;;;;;;5045076;28;20449;-22
2021/09/19 12:14:22;;;;;;;2.57;2.37;;;13.10;99.90;;;;;;5045391;28;20547;-23
2021/09/19 12:17:07;;;;;;;3.57;2.80;;;13.10;99.90;;;;;;5043783;28;20477;-23
2021/09/19 12:19:39;;;;;;;2.83;2.53;;;13.10;99.90;;;;;;5044589;28;20484;-23
2021/09/19 12:22:18;;;;;;;2.53;2.33;;;13.10;99.90;;;;;;5032407;28;20445;-23
2021/09/19 12:24:54;;;;;;;2.93;2.70;;;13.20;99.90;;;;;;5045131;28;20468;-23
2021/09/19 12:27:28;;;;;;;2.67;2.47;;;13.20;99.90;;;;;;5044095;28;20536;-22
2021/09/19 12:30:02;;;;;;;3.23;2.93;;;13.20;99.90;;;;;;5044856;28;20461;-22
2021/09/19 12:32:42;;;;;;;2.90;2.60;;;13.20;99.90;;;;;;5044058;28;20476;-22
2021/09/19 12:35:14;;;;;;;3.73;2.40;;;13.10;99.90;;;;;;5044250;28;20781;-22
2021/09/19 12:37:48;;;;;;;2.83;2.03;;;13.10;99.90;;;;;;5043954;28;20473;-22
2021/09/19 12:40:20;;;;;;;2.70;2.50;;;13.00;99.90;;;;;;5044390;28;20505;-22
2021/09/19 12:42:53;;;;;;;2.10;1.87;;;13.10;99.90;;;;;;5042707;28;20453;-23
2021/09/19 12:45:26;;;;;;;3.20;2.43;;;13.00;99.90;;;;;;5044679;28;20507;-23
2021/09/19 12:47:57;;;;;;;2.27;2.17;;;13.10;99.90;;;;;;5043469;28;20481;-23
2021/09/19 12:50:30;;;;;;;2.23;2.00;;;13.10;99.90;;;;;;5044417;28;20481;-23
2021/09/19 12:53:03;;;;;;;6.87;2.53;;;13.00;99.90;;;;;;5044775;28;20446;-23
2021/09/19 12:55:34;;;;;;;2.17;1.97;;;13.00;99.90;;;;;;5045300;28;20441;-23
2021/09/19 12:58:06;;;;;;;2.70;2.07;;;13.00;99.90;;;;;;5043856;28;20488;-23
2021/09/19 13:00:37;;;;;;;2.17;1.97;;;13.00;99.90;;;;;;5044800;28;20454;-23
2021/09/19 13:03:09;;;;;;;2.00;1.90;;;13.00;99.90;;;;;;5041626;28;20449;-23
2021/09/19 13:05:43;;;;;;;1.93;1.83;;;13.00;99.90;;;;;;5044264;28;20589;-23
2021/09/19 13:08:15;;;;;;;2.10;2.00;;;13.00;99.90;;;;;;5042875;28;20533;-23
2021/09/19 13:10:46;;;;;;;2.07;1.73;;;13.00;99.90;;;;;;5043899;28;20445;-23
2021/09/19 13:13:19;;;;;;;2.03;1.93;;;13.00;99.90;;;;;;5043372;28;20460;-23